Weather at As Suwayda West Air Base

Public forecast

Using degrees Celsius for public forecast. Weather courtesy of forecast.io.

Closest aviation weather report (METAR) to As Suwayda West Air Base

Closest report is Damascus International Airport, 42.7 nm (79.1 km) N. Retrieved 2021/10/28 12:00 UTC (46 minutes ago):

OSDI 281200Z 29004KT CAVOK 27/01 Q1017

Closest aviation forecast (TAF) to As Suwayda West Air Base

Forecast is more than 6 hours old.

Closest forecast is Damascus International Airport, 42.7 nm (79.1 km) N. Retrieved 2021/10/28 06:00 UTC (7 hours ago):

TAF OSDI 280400Z 2806/2912 22010KT CAVOK